Terminal Aerodrome Forecast
Issued by NWS Nashville, TN

Home | Current Version | Previous Version | Text Only | Print | Product List | Glossary On
Versions: 1 2 3 4 5 6 7 8 9 10 11 12 13 14 15 16 17 18 19 20 21 22 23
000
FTUS44 KOHX 260200 AAA
TAFCSV
TAF AMD
KCSV 260226Z 2602/2624 20005KT P6SM SCT050 BKN150
      TEMPO 2602/2605 4SM -TSRA OVC025CB
     FM260600 29010KT P6SM VCTS SCT012 BKN025CB OVC035
     FM260900 31007KT 4SM BR OVC008
     FM261500 33006KT P6SM SCT008 OVC015=

USA.gov is the U.S. government's official web portal to all federal, state and local government web resources and services.